Time;durP1;ratioP1;P1;durP2;ratioP2;P2;SDS_P1;SDS_P2;PMS_P1;PMS_P2;Temp;Humidity;BMP_temperature;BMP_pressure;BME280_temperature;BME280_humidity;BME280_pressure;Samples;Min_cycle;Max_cycle;Signal;HPM_P1;HPM_P2
2024/01/23 00:01:43;;;;;;;12.98;2.65;;;5.40;99.90;;;;;;5088650;28;20044;-65
2024/01/23 00:04:11;;;;;;;19.95;2.75;;;5.50;99.90;;;;;;5086800;28;20048;-64
2024/01/23 00:06:40;;;;;;;18.50;2.15;;;5.40;99.90;;;;;;5088839;28;20043;-63
2024/01/23 00:09:08;;;;;;;19.65;1.92;;;5.40;99.90;;;;;;5096791;28;20519;-64
2024/01/23 00:11:35;;;;;;;12.77;2.17;;;5.50;99.90;;;;;;5088395;28;20040;-66
2024/01/23 00:14:03;;;;;;;10.75;1.85;;;5.40;99.90;;;;;;5085851;28;20047;-63
2024/01/23 00:16:31;;;;;;;18.60;2.75;;;5.40;99.90;;;;;;5087616;28;20044;-62
2024/01/23 00:19:01;;;;;;;15.73;2.65;;;5.40;99.90;;;;;;5091708;28;20055;-65
2024/01/23 00:21:29;;;;;;;15.55;2.78;;;5.40;99.90;;;;;;5099946;28;20052;-63
2024/01/23 00:23:57;;;;;;;19.17;2.55;;;5.50;99.90;;;;;;5078317;28;20048;-63
2024/01/23 00:26:25;;;;;;;19.65;2.55;;;5.50;99.90;;;;;;5075840;28;20055;-64
2024/01/23 00:28:53;;;;;;;21.23;3.50;;;5.60;99.90;;;;;;5076274;28;20036;-65
2024/01/23 00:31:20;;;;;;;17.08;2.78;;;5.60;99.90;;;;;;5086571;28;20494;-65
2024/01/23 00:33:48;;;;;;;15.98;2.65;;;5.60;99.90;;;;;;5085605;28;20048;-62
2024/01/23 00:36:16;;;;;;;15.70;2.00;;;5.70;99.90;;;;;;5087332;28;20051;-61
2024/01/23 00:38:44;;;;;;;13.15;1.92;;;5.70;99.90;;;;;;5095151;28;20039;-63
2024/01/23 00:41:11;;;;;;;19.52;2.78;;;5.70;99.90;;;;;;5108047;28;20046;-66
2024/01/23 00:43:39;;;;;;;23.15;2.60;;;5.70;99.90;;;;;;5097963;28;20059;-68
2024/01/23 00:46:07;;;;;;;13.55;2.58;;;5.70;99.90;;;;;;5107160;28;20054;-67
2024/01/23 00:48:34;;;;;;;15.35;2.97;;;5.70;99.90;;;;;;5100617;28;20059;-72
2024/01/23 00:51:02;;;;;;;21.38;2.83;;;5.70;99.90;;;;;;5093789;28;20044;-67
2024/01/23 00:53:30;;;;;;;22.80;2.88;;;5.70;99.90;;;;;;5085882;28;20484;-70
2024/01/23 00:55:58;;;;;;;16.88;2.95;;;5.70;99.90;;;;;;5102574;28;20059;-72
2024/01/23 00:58:26;;;;;;;19.55;2.55;;;5.70;99.90;;;;;;5093341;28;20058;-70
2024/01/23 01:00:54;;;;;;;16.52;3.40;;;5.60;99.90;;;;;;5104975;28;20039;-70
2024/01/23 01:03:21;;;;;;;12.82;2.25;;;5.50;99.90;;;;;;5092735;28;20044;-71
2024/01/23 01:05:49;;;;;;;19.88;3.13;;;5.50;99.90;;;;;;5083707;28;20503;-71
2024/01/23 01:08:17;;;;;;;21.65;4.07;;;5.50;99.90;;;;;;5090460;28;20036;-72
2024/01/23 01:10:47;;;;;;;14.23;2.35;;;5.50;99.90;;;;;;5092961;28;20048;-70
2024/01/23 01:13:15;;;;;;;19.17;2.65;;;5.50;99.90;;;;;;5019791;28;1892752;-62
2024/01/23 01:15:42;;;;;;;20.55;2.15;;;5.50;99.90;;;;;;5086239;28;20052;-64
2024/01/23 01:18:10;;;;;;;21.75;2.92;;;5.50;99.90;;;;;;5087604;28;20040;-63
2024/01/23 01:20:38;;;;;;;23.83;2.85;;;5.50;99.90;;;;;;5108078;28;20039;-62
2024/01/23 01:23:05;;;;;;;18.17;2.83;;;5.40;99.90;;;;;;5102602;28;20063;-64
2024/01/23 01:25:33;;;;;;;18.92;2.58;;;5.40;99.90;;;;;;5099119;28;20047;-64
2024/01/23 01:28:01;;;;;;;10.98;2.70;;;5.40;99.90;;;;;;5094901;28;20641;-62
2024/01/23 01:30:29;;;;;;;19.30;2.60;;;5.40;99.90;;;;;;5085249;28;20036;-65
2024/01/23 01:32:57;;;;;;;22.83;3.65;;;5.40;99.90;;;;;;5085004;28;20052;-63
2024/01/23 01:35:25;;;;;;;42.97;3.78;;;5.40;99.90;;;;;;5081868;28;20055;-65
2024/01/23 01:37:52;;;;;;;27.08;4.25;;;5.40;99.90;;;;;;5086637;28;20070;-64
2024/01/23 01:40:21;;;;;;;25.85;2.95;;;5.40;99.90;;;;;;5084162;28;20502;-65
2024/01/23 01:42:48;;;;;;;28.90;4.25;;;5.30;99.90;;;;;;5069412;28;20439;-65
2024/01/23 01:45:16;;;;;;;27.02;3.83;;;5.40;99.90;;;;;;5087561;28;20060;-62
2024/01/23 01:47:47;;;;;;;19.63;3.60;;;5.30;99.90;;;;;;5087313;28;20051;-64
2024/01/23 01:50:14;;;;;;;27.15;3.33;;;5.30;99.90;;;;;;5086936;28;20051;-63
2024/01/23 01:52:42;;;;;;;16.67;3.38;;;5.20;99.90;;;;;;5086205;28;20055;-66
2024/01/23 01:55:11;;;;;;;38.00;4.43;;;5.20;99.90;;;;;;5094369;28;20059;-63
2024/01/23 01:57:40;;;;;;;26.90;3.05;;;5.20;99.90;;;;;;5106685;28;20510;-63
2024/01/23 02:00:08;;;;;;;21.27;2.67;;;5.20;99.90;;;;;;5107231;28;20047;-64
2024/01/23 02:02:41;;;;;;;26.45;3.80;;;5.10;99.90;;;;;;5105028;28;20048;-63
2024/01/23 02:05:10;;;;;;;29.52;4.20;;;5.20;99.90;;;;;;5079303;28;20044;-63
2024/01/23 02:07:38;;;;;;;20.95;2.97;;;5.10;99.90;;;;;;5087061;28;20435;-61
2024/01/23 02:10:07;;;;;;;21.07;3.17;;;5.10;99.90;;;;;;5105572;28;20055;-63
2024/01/23 02:12:34;;;;;;;20.30;3.45;;;5.10;99.90;;;;;;5098514;28;20048;-63
2024/01/23 02:15:03;;;;;;;27.95;3.38;;;5.10;99.90;;;;;;5100230;28;20059;-64
2024/01/23 02:17:31;;;;;;;24.98;5.20;;;5.10;99.90;;;;;;5090019;28;20052;-62
2024/01/23 02:19:59;;;;;;;29.33;3.58;;;5.00;99.90;;;;;;5074127;28;20041;-67
2024/01/23 02:22:26;;;;;;;26.67;3.67;;;5.00;99.90;;;;;;5082854;28;20059;-65
2024/01/23 02:24:54;;;;;;;19.13;3.92;;;5.00;99.90;;;;;;5106459;28;20039;-64
2024/01/23 02:27:22;;;;;;;16.33;2.47;;;5.00;99.90;;;;;;5101714;28;20043;-62
2024/01/23 02:29:49;;;;;;;29.95;3.85;;;4.90;99.90;;;;;;5106251;28;20052;-61
2024/01/23 02:32:17;;;;;;;15.73;3.17;;;5.00;99.90;;;;;;5075915;28;20049;-61
2024/01/23 02:34:45;;;;;;;35.70;3.15;;;5.00;99.90;;;;;;5082208;28;20040;-63
2024/01/23 02:37:13;;;;;;;27.58;4.18;;;4.90;99.90;;;;;;5074462;28;20415;-63
2024/01/23 02:39:41;;;;;;;23.42;2.80;;;4.90;99.90;;;;;;5102965;28;20063;-64
2024/01/23 02:42:10;;;;;;;19.52;2.97;;;4.90;99.90;;;;;;5113055;28;20046;-65
2024/01/23 02:44:40;;;;;;;29.23;3.65;;;4.80;99.90;;;;;;5106764;28;20044;-66
2024/01/23 02:47:08;;;;;;;38.45;3.63;;;4.80;99.90;;;;;;5077689;28;20043;-70
2024/01/23 02:49:36;;;;;;;57.08;4.93;;;4.70;99.90;;;;;;5092787;28;20047;-62
2024/01/23 02:52:04;;;;;;;21.35;2.88;;;4.70;99.90;;;;;;5093696;28;20055;-63
2024/01/23 02:54:32;;;;;;;28.02;3.78;;;4.70;99.90;;;;;;5096447;28;20620;-62
2024/01/23 02:57:00;;;;;;;26.05;3.35;;;4.70;99.90;;;;;;5113301;28;20062;-62
2024/01/23 02:59:27;;;;;;;40.22;4.10;;;4.70;99.90;;;;;;5113526;28;20043;-63
2024/01/23 03:01:55;;;;;;;31.75;3.92;;;4.70;99.90;;;;;;5090897;28;20400;-66
2024/01/23 03:04:23;;;;;;;30.58;4.05;;;4.70;99.90;;;;;;5076135;28;20048;-62
2024/01/23 03:06:50;;;;;;;28.42;2.90;;;4.70;99.90;;;;;;5092120;28;20056;-65
2024/01/23 03:09:18;;;;;;;31.02;3.25;;;4.60;99.90;;;;;;5093506;28;20059;-63
2024/01/23 03:11:46;;;;;;;21.92;3.42;;;4.60;99.90;;;;;;5093159;28;20492;-62
2024/01/23 03:14:13;;;;;;;27.30;3.80;;;4.60;99.90;;;;;;5089713;28;20044;-70
2024/01/23 03:16:41;;;;;;;26.95;3.90;;;4.50;99.90;;;;;;5092132;28;20039;-69
2024/01/23 03:19:08;;;;;;;18.08;3.00;;;4.50;99.90;;;;;;5092774;28;20044;-70
2024/01/23 03:21:36;;;;;;;22.73;3.35;;;4.50;99.90;;;;;;5091605;28;20048;-71
2024/01/23 03:24:06;;;;;;;30.92;2.92;;;4.40;99.90;;;;;;5088787;28;20052;-69
2024/01/23 03:26:34;;;;;;;31.05;3.45;;;4.40;99.90;;;;;;5076782;28;20396;-68
2024/01/23 03:29:02;;;;;;;19.88;3.25;;;4.40;99.90;;;;;;5072731;28;20060;-61
2024/01/23 03:31:30;;;;;;;30.75;3.92;;;4.30;99.90;;;;;;5071663;28;20044;-64
2024/01/23 03:33:57;;;;;;;30.35;4.57;;;4.40;99.90;;;;;;5072648;28;20040;-63
2024/01/23 03:36:25;;;;;;;26.52;3.75;;;4.40;99.90;;;;;;5089937;28;20040;-63
2024/01/23 03:38:53;;;;;;;21.40;3.00;;;4.30;99.90;;;;;;5092663;28;20051;-64
2024/01/23 03:41:20;;;;;;;22.85;3.10;;;4.30;99.90;;;;;;5092789;28;20534;-63
2024/01/23 03:43:48;;;;;;;21.25;2.97;;;4.20;99.90;;;;;;5089297;28;20511;-66
2024/01/23 03:46:16;;;;;;;19.40;3.90;;;4.20;99.90;;;;;;5091672;28;20044;-64
2024/01/23 03:48:43;;;;;;;26.20;3.17;;;4.20;99.90;;;;;;5088850;28;20056;-62
2024/01/23 03:51:11;;;;;;;28.65;3.60;;;4.20;99.90;;;;;;5072265;28;20060;-63
2024/01/23 03:53:39;;;;;;;18.85;3.97;;;4.10;99.90;;;;;;5071258;28;20044;-66
2024/01/23 03:56:07;;;;;;;22.10;3.83;;;4.10;99.90;;;;;;5089749;28;20044;-65
2024/01/23 03:58:34;;;;;;;25.95;3.33;;;4.10;99.90;;;;;;5092318;28;20044;-63
2024/01/23 04:01:02;;;;;;;30.85;2.75;;;4.10;99.90;;;;;;5092571;28;20048;-64
2024/01/23 04:03:30;;;;;;;31.20;4.28;;;4.10;99.90;;;;;;5092375;28;20048;-66
2024/01/23 04:05:57;;;;;;;19.70;3.47;;;4.10;99.90;;;;;;5092218;28;20040;-67
2024/01/23 04:08:25;;;;;;;27.17;2.70;;;4.10;99.90;;;;;;5092153;28;20126;-63
2024/01/23 04:10:53;;;;;;;26.77;4.30;;;4.10;99.90;;;;;;5092014;28;20051;-63
2024/01/23 04:13:20;;;;;;;24.98;3.15;;;4.30;99.90;;;;;;5091987;28;20388;-63
2024/01/23 04:15:48;;;;;;;25.45;4.35;;;4.20;99.90;;;;;;5089905;28;20035;-65
2024/01/23 04:18:16;;;;;;;27.98;5.03;;;4.20;99.90;;;;;;5091799;28;20051;-62
2024/01/23 04:20:44;;;;;;;35.22;4.40;;;4.20;99.90;;;;;;5090928;28;20039;-63
2024/01/23 04:23:11;;;;;;;36.38;3.67;;;4.20;99.90;;;;;;5091980;28;20047;-61
2024/01/23 04:25:39;;;;;;;21.67;3.05;;;4.20;99.90;;;;;;5093674;28;20487;-63
2024/01/23 04:28:06;;;;;;;24.15;3.67;;;4.20;99.90;;;;;;5090524;28;20059;-65
2024/01/23 04:30:34;;;;;;;21.55;2.78;;;4.20;99.90;;;;;;5091809;28;20056;-62
2024/01/23 04:33:02;;;;;;;36.80;3.17;;;4.20;99.90;;;;;;5090661;28;20505;-63
2024/01/23 04:35:30;;;;;;;36.17;3.38;;;4.20;99.90;;;;;;5090445;28;20044;-63
2024/01/23 04:37:57;;;;;;;27.25;3.28;;;4.10;99.90;;;;;;5091519;28;20044;-64
2024/01/23 04:40:25;;;;;;;23.42;2.42;;;4.10;99.90;;;;;;5091052;28;20043;-68
2024/01/23 04:42:53;;;;;;;33.05;4.45;;;4.10;99.90;;;;;;5091841;28;20036;-71
2024/01/23 04:45:20;;;;;;;26.58;3.75;;;4.00;99.90;;;;;;5088038;28;20048;-71
2024/01/23 04:47:48;;;;;;;20.85;3.53;;;4.00;99.90;;;;;;5091781;28;20071;-70
2024/01/23 04:50:16;;;;;;;25.15;3.08;;;4.00;99.90;;;;;;5091476;28;20059;-69
2024/01/23 04:52:43;;;;;;;26.70;3.95;;;4.10;99.90;;;;;;5091312;28;20103;-71
2024/01/23 04:55:11;;;;;;;26.42;3.05;;;4.00;99.90;;;;;;5092645;28;20040;-70
2024/01/23 04:57:38;;;;;;;32.67;4.20;;;4.00;99.90;;;;;;5091586;28;20051;-63
2024/01/23 05:00:07;;;;;;;36.70;4.68;;;4.10;99.90;;;;;;5091323;28;20048;-64
2024/01/23 05:02:35;;;;;;;23.15;3.20;;;4.10;99.90;;;;;;5091257;28;20051;-62
2024/01/23 05:05:03;;;;;;;20.23;2.92;;;4.10;99.90;;;;;;5091328;28;20503;-62
2024/01/23 05:07:31;;;;;;;26.77;3.75;;;4.10;99.90;;;;;;5090366;28;20040;-61
2024/01/23 05:09:58;;;;;;;29.33;2.97;;;4.20;99.90;;;;;;5088890;28;20044;-62
2024/01/23 05:12:26;;;;;;;24.88;3.38;;;4.20;99.90;;;;;;5090823;28;20051;-63
2024/01/23 05:14:54;;;;;;;29.15;3.75;;;4.10;99.90;;;;;;5091386;28;20046;-63
2024/01/23 05:17:21;;;;;;;19.27;2.85;;;4.10;99.90;;;;;;5087779;28;20040;-62
2024/01/23 05:19:50;;;;;;;27.75;4.40;;;4.00;99.90;;;;;;5089900;28;20518;-63
2024/01/23 05:22:17;;;;;;;24.98;3.25;;;4.00;99.90;;;;;;5090147;28;20048;-62
2024/01/23 05:24:45;;;;;;;35.47;3.97;;;4.10;99.90;;;;;;5094180;28;20051;-63
2024/01/23 05:27:12;;;;;;;24.02;3.42;;;4.00;99.90;;;;;;5089929;28;20059;-66
2024/01/23 05:29:40;;;;;;;26.38;3.22;;;4.10;99.90;;;;;;5091204;28;20044;-65
2024/01/23 05:32:08;;;;;;;21.35;3.08;;;4.30;99.90;;;;;;5089178;28;20048;-63
2024/01/23 05:34:35;;;;;;;26.85;2.80;;;4.20;99.90;;;;;;5082956;28;20055;-64
2024/01/23 05:37:03;;;;;;;22.63;2.95;;;4.30;99.90;;;;;;5089500;28;20044;-62
2024/01/23 05:39:37;;;;;;;24.42;3.20;;;4.40;99.90;;;;;;5091128;28;20055;-66
2024/01/23 05:42:06;;;;;;;31.67;3.97;;;4.40;99.90;;;;;;5091033;28;20067;-64
2024/01/23 05:44:34;;;;;;;33.13;3.30;;;4.50;99.90;;;;;;5087748;28;20062;-64
2024/01/23 05:47:02;;;;;;;37.75;3.45;;;4.60;99.90;;;;;;5069958;28;20041;-63
2024/01/23 05:49:31;;;;;;;32.95;3.33;;;4.60;99.90;;;;;;5069701;28;20059;-68
2024/01/23 05:51:59;;;;;;;15.38;2.92;;;4.70;99.90;;;;;;5070989;28;20043;-65
2024/01/23 05:54:27;;;;;;;24.35;2.72;;;4.70;99.90;;;;;;5075771;28;20055;-65
2024/01/23 05:56:55;;;;;;;20.85;2.50;;;4.80;99.90;;;;;;5092215;28;20044;-64
2024/01/23 05:59:22;;;;;;;22.30;3.72;;;4.80;99.90;;;;;;5110568;28;20665;-65
2024/01/23 06:01:52;;;;;;;;;;;4.80;99.90;;;;;;5092562;28;20377;-64
2024/01/23 06:04:22;;;;;;;24.88;3.65;;;4.90;99.90;;;;;;5072472;28;20299;-71
2024/01/23 06:06:50;;;;;;;20.60;3.00;;;4.90;99.90;;;;;;5086467;28;20419;-72
2024/01/23 06:09:18;;;;;;;21.33;4.30;;;4.90;99.90;;;;;;5102017;28;20059;-71
2024/01/23 06:11:47;;;;;;;19.42;2.97;;;4.90;99.90;;;;;;5090897;28;20051;-64
2024/01/23 06:14:14;;;;;;;22.50;3.22;;;4.90;99.90;;;;;;5091037;28;20044;-68
2024/01/23 06:16:42;;;;;;;30.05;2.22;;;4.90;99.90;;;;;;5088305;28;20044;-67
2024/01/23 06:19:09;;;;;;;37.55;5.20;;;4.90;99.90;;;;;;5087537;28;20047;-64
2024/01/23 06:21:38;;;;;;;18.88;3.05;;;4.90;99.90;;;;;;5089348;28;20048;-63
2024/01/23 06:24:06;;;;;;;29.05;3.95;;;5.00;99.90;;;;;;5105831;28;20399;-67
2024/01/23 06:26:34;;;;;;;19.92;2.58;;;5.00;99.90;;;;;;5092722;28;20044;-63
2024/01/23 06:29:03;;;;;;;21.38;3.22;;;5.00;99.90;;;;;;5103105;28;20046;-63
2024/01/23 06:31:31;;;;;;;33.63;4.18;;;5.00;99.90;;;;;;5071561;28;20060;-62
2024/01/23 06:33:59;;;;;;;27.45;5.10;;;5.00;99.90;;;;;;5075889;28;20395;-63
2024/01/23 06:36:27;;;;;;;29.48;4.25;;;5.00;99.90;;;;;;5087077;28;20064;-68
2024/01/23 06:38:54;;;;;;;22.98;4.85;;;5.00;99.90;;;;;;5094912;28;20032;-64
2024/01/23 06:41:22;;;;;;;22.05;3.17;;;4.90;99.90;;;;;;5072998;28;20048;-65
2024/01/23 06:43:50;;;;;;;32.85;5.30;;;4.90;99.90;;;;;;5076042;28;20036;-66
2024/01/23 06:46:17;;;;;;;20.08;4.50;;;4.90;99.90;;;;;;5082444;28;20051;-62
2024/01/23 06:48:45;;;;;;;50.35;4.03;;;4.70;99.90;;;;;;5077349;28;20051;-67
2024/01/23 06:51:13;;;;;;;45.72;5.18;;;4.70;99.90;;;;;;5068688;28;20045;-69
2024/01/23 06:53:40;;;;;;;32.10;3.42;;;4.70;99.90;;;;;;5085146;28;20415;-72
2024/01/23 06:56:08;;;;;;;25.67;2.92;;;4.60;99.90;;;;;;5064530;28;20559;-70
2024/01/23 06:58:36;;;;;;;24.83;2.93;;;4.60;99.90;;;;;;5081554;28;20035;-64
2024/01/23 07:01:04;;;;;;;25.35;4.72;;;4.60;99.90;;;;;;5082115;28;20487;-62
2024/01/23 07:03:31;;;;;;;19.17;3.15;;;4.60;99.90;;;;;;5087453;28;20048;-63
2024/01/23 07:05:59;;;;;;;24.27;3.03;;;4.60;99.90;;;;;;5086004;28;20062;-68
2024/01/23 07:08:28;;;;;;;25.77;3.92;;;4.50;99.90;;;;;;5081834;28;20078;-64
2024/01/23 07:10:56;;;;;;;16.60;2.50;;;4.50;99.90;;;;;;5088638;28;20051;-64
2024/01/23 07:13:24;;;;;;;27.30;4.72;;;4.50;99.90;;;;;;5084411;28;20044;-62
2024/01/23 07:15:51;;;;;;;23.67;3.00;;;4.50;99.90;;;;;;5083573;28;20036;-70
2024/01/23 07:18:19;;;;;;;24.65;2.83;;;4.50;99.90;;;;;;5083388;28;20052;-65
2024/01/23 07:20:47;;;;;;;19.77;2.83;;;4.60;99.90;;;;;;5071527;28;20051;-66
2024/01/23 07:23:15;;;;;;;19.77;3.17;;;4.60;99.90;;;;;;5081391;28;20044;-70
2024/01/23 07:25:43;;;;;;;27.15;3.78;;;4.60;99.90;;;;;;5102492;28;20047;-64
2024/01/23 07:28:11;;;;;;;16.90;2.75;;;4.60;99.90;;;;;;5094106;28;20040;-68
2024/01/23 07:30:56;;;;;;;18.80;2.75;;;4.60;99.90;;;;;;5086113;28;20048;-69
2024/01/23 07:33:23;;;;;;;27.15;5.05;;;4.70;99.90;;;;;;5084982;28;20063;-71
2024/01/23 07:35:51;;;;;;;32.97;3.60;;;4.70;99.90;;;;;;5080752;28;20044;-66
2024/01/23 07:38:19;;;;;;;22.13;3.53;;;4.70;99.90;;;;;;5088551;28;20044;-69
2024/01/23 07:40:48;;;;;;;29.63;3.58;;;4.70;99.90;;;;;;5088484;28;20059;-70
2024/01/23 07:43:16;;;;;;;28.33;4.18;;;4.80;99.90;;;;;;5087764;28;20040;-64
2024/01/23 07:45:44;;;;;;;27.10;3.72;;;4.80;99.90;;;;;;5087213;28;20052;-75
2024/01/23 07:48:12;;;;;;;18.90;2.75;;;4.80;99.90;;;;;;5082678;28;21838;-67
2024/01/23 07:50:39;;;;;;;24.40;3.78;;;4.80;99.90;;;;;;5066024;28;20380;-72
2024/01/23 07:53:07;;;;;;;18.85;3.28;;;4.90;99.90;;;;;;5076338;28;20040;-73
2024/01/23 07:55:35;;;;;;;26.60;4.22;;;4.90;99.90;;;;;;5097128;28;20051;-72
2024/01/23 07:58:02;;;;;;;23.80;3.17;;;4.90;99.90;;;;;;5101951;28;20484;-69
2024/01/23 08:00:30;;;;;;;22.48;3.50;;;5.00;99.90;;;;;;5089199;28;20040;-65
2024/01/23 08:03:00;;;;;;;23.25;2.83;;;5.00;99.90;;;;;;5087817;28;20055;-64
2024/01/23 08:05:29;;;;;;;28.48;6.32;;;5.00;99.90;;;;;;5082882;28;20417;-64
2024/01/23 08:07:56;;;;;;;22.13;3.90;;;5.00;99.90;;;;;;5087716;28;20044;-64
2024/01/23 08:10:24;;;;;;;28.95;3.70;;;5.10;99.90;;;;;;5088432;28;20395;-64
2024/01/23 08:12:51;;;;;;;17.10;3.08;;;5.10;99.90;;;;;;5083923;28;20048;-64
2024/01/23 08:15:19;;;;;;;30.10;5.38;;;5.10;99.90;;;;;;5088909;28;20036;-63
2024/01/23 08:17:47;;;;;;;25.52;3.88;;;5.10;99.90;;;;;;5083980;28;20063;-62
2024/01/23 08:20:14;;;;;;;21.73;3.78;;;5.20;99.90;;;;;;5064239;28;20511;-63
2024/01/23 08:22:42;;;;;;;20.10;3.40;;;5.20;99.90;;;;;;5078082;28;20391;-62
2024/01/23 08:25:10;;;;;;;24.55;4.55;;;5.20;99.90;;;;;;5093531;28;20047;-63
2024/01/23 08:27:38;;;;;;;25.95;3.17;;;5.20;99.90;;;;;;5089647;28;20062;-63
2024/01/23 08:30:06;;;;;;;19.92;2.80;;;5.30;99.90;;;;;;5075271;28;20400;-63
2024/01/23 08:32:34;;;;;;;17.08;2.97;;;5.30;99.90;;;;;;5081369;28;20036;-69
2024/01/23 08:35:02;;;;;;;22.67;2.50;;;5.30;99.90;;;;;;5082323;28;20044;-71
2024/01/23 08:37:30;;;;;;;28.98;4.20;;;5.40;99.90;;;;;;5082349;28;20051;-64
2024/01/23 08:39:58;;;;;;;21.30;3.72;;;5.40;99.90;;;;;;5109076;28;20495;-71
2024/01/23 08:42:25;;;;;;;26.17;2.70;;;5.40;99.90;;;;;;5103532;28;20052;-72
2024/01/23 08:44:55;;;;;;;20.60;3.30;;;5.50;99.90;;;;;;5080829;28;20357;-64
2024/01/23 08:47:22;;;;;;;29.70;3.08;;;5.50;99.90;;;;;;5070972;28;20053;-72
2024/01/23 08:49:50;;;;;;;32.83;4.72;;;5.50;99.90;;;;;;5075315;28;20037;-68
2024/01/23 08:52:18;;;;;;;36.10;5.68;;;5.50;99.90;;;;;;5072970;28;20048;-72
2024/01/23 08:54:46;;;;;;;27.27;3.35;;;5.60;99.90;;;;;;5087700;28;20052;-72
2024/01/23 08:57:16;;;;;;;24.42;3.15;;;5.70;99.90;;;;;;5088597;28;20036;-65
2024/01/23 08:59:45;;;;;;;18.92;3.90;;;5.70;99.90;;;;;;5108734;28;20048;-66
2024/01/23 09:02:14;;;;;;;23.35;3.72;;;5.80;99.90;;;;;;5105379;28;20051;-64
2024/01/23 09:04:41;;;;;;;37.50;4.35;;;5.80;99.90;;;;;;5078392;28;20045;-66
2024/01/23 09:07:09;;;;;;;30.55;4.05;;;5.90;99.90;;;;;;5068197;28;20059;-69
2024/01/23 09:09:37;;;;;;;31.73;4.13;;;6.00;99.90;;;;;;5068226;28;20577;-65
2024/01/23 09:12:05;;;;;;;37.78;4.22;;;6.00;99.90;;;;;;5076520;28;20059;-68
2024/01/23 09:14:33;;;;;;;27.75;3.63;;;6.00;99.90;;;;;;5087288;28;20044;-64
2024/01/23 09:17:01;;;;;;;29.55;5.22;;;6.10;99.90;;;;;;5088090;28;20130;-63
2024/01/23 09:19:30;;;;;;;18.92;3.25;;;6.10;99.90;;;;;;5084030;28;20059;-70
2024/01/23 09:21:58;;;;;;;27.00;3.67;;;6.20;99.90;;;;;;5087002;28;20056;-70
2024/01/23 09:24:26;;;;;;;25.85;3.72;;;6.20;99.90;;;;;;5091768;28;20403;-71
2024/01/23 09:26:58;;;;;;;24.05;3.53;;;6.20;99.90;;;;;;5090049;28;20052;-65
2024/01/23 09:29:27;;;;;;;22.05;3.83;;;6.30;99.90;;;;;;5082409;28;20044;-73
2024/01/23 09:31:55;;;;;;;29.08;3.55;;;6.30;99.90;;;;;;5056029;28;20408;-72
2024/01/23 09:34:23;;;;;;;27.25;4.03;;;6.40;99.90;;;;;;5093768;28;20391;-63
2024/01/23 09:36:51;;;;;;;38.25;3.65;;;6.40;99.90;;;;;;5071699;28;20048;-66
2024/01/23 09:39:18;;;;;;;23.60;3.78;;;6.50;99.90;;;;;;5089460;28;20044;-64
2024/01/23 09:41:52;;;;;;;28.40;4.20;;;6.50;99.90;;;;;;5092084;28;20483;-63
2024/01/23 09:44:20;;;;;;;24.55;3.10;;;6.50;99.90;;;;;;5085673;28;20048;-64
2024/01/23 09:46:52;;;;;;;17.88;3.13;;;6.60;99.90;;;;;;5091995;28;20503;-65
2024/01/23 09:49:20;;;;;;;29.15;2.72;;;6.70;99.90;;;;;;5090299;28;20044;-69
2024/01/23 09:51:49;;;;;;;21.60;2.95;;;6.70;99.90;;;;;;5071464;28;20040;-67
2024/01/23 09:54:17;;;;;;;19.45;3.15;;;6.70;99.90;;;;;;5090672;28;20048;-69
2024/01/23 09:56:45;;;;;;;23.35;3.67;;;6.70;99.90;;;;;;5090971;28;20491;-67
2024/01/23 09:59:13;;;;;;;25.70;4.75;;;6.70;99.90;;;;;;5091547;28;20048;-68
2024/01/23 10:01:40;;;;;;;24.70;4.05;;;6.80;99.90;;;;;;5079594;28;20044;-63
2024/01/23 10:04:08;;;;;;;19.30;3.25;;;6.80;99.90;;;;;;5088977;28;20052;-64
2024/01/23 10:06:37;;;;;;;20.17;2.20;;;6.90;99.90;;;;;;5072609;28;20055;-64
2024/01/23 10:09:05;;;;;;;17.45;2.63;;;6.90;99.90;;;;;;5085551;28;20040;-66
2024/01/23 10:11:35;;;;;;;20.83;3.70;;;6.90;99.90;;;;;;5090352;28;20052;-65
2024/01/23 10:14:06;;;;;;;26.15;2.88;;;6.90;99.90;;;;;;5101532;28;20044;-63
2024/01/23 10:16:39;;;;;;;21.23;2.67;;;7.00;99.90;;;;;;5088369;28;20044;-64
2024/01/23 10:19:12;;;;;;;19.27;2.13;;;7.00;99.90;;;;;;5090531;28;20051;-63
2024/01/23 10:21:40;;;;;;;19.88;2.60;;;7.00;99.90;;;;;;5073314;28;20052;-63
2024/01/23 10:24:09;;;;;;;13.82;2.53;;;7.10;99.90;;;;;;5090612;28;20048;-63
2024/01/23 10:26:36;;;;;;;22.55;3.08;;;7.10;99.90;;;;;;5088260;28;20047;-63
2024/01/23 10:29:06;;;;;;;16.08;2.25;;;7.20;99.90;;;;;;5086995;28;20044;-63
2024/01/23 10:31:36;;;;;;;13.05;1.85;;;7.20;99.90;;;;;;5078507;28;20063;-65
2024/01/23 10:34:05;;;;;;;;;;;7.20;99.90;;;;;;5091219;28;20055;-72
2024/01/23 10:36:33;;;;;;;14.85;2.47;;;7.30;99.90;;;;;;5084338;28;19920;-66
2024/01/23 10:39:01;;;;;;;6.53;1.48;;;7.40;99.90;;;;;;5086801;28;20044;-67
2024/01/23 10:41:29;;;;;;;14.57;2.22;;;7.40;99.90;;;;;;5087836;28;20044;-72
2024/01/23 10:43:59;;;;;;;13.55;2.00;;;7.40;99.90;;;;;;5088662;28;20040;-71
2024/01/23 10:46:28;;;;;;;15.32;2.20;;;7.50;99.90;;;;;;5089265;28;20050;-73
2024/01/23 10:48:56;;;;;;;11.27;1.80;;;7.50;99.90;;;;;;5090279;28;20518;-65
2024/01/23 10:51:33;;;;;;;14.38;1.90;;;7.50;99.90;;;;;;5074770;28;20048;-65
2024/01/23 10:54:08;;;;;;;12.38;2.10;;;7.60;99.90;;;;;;5093017;28;20060;-66
2024/01/23 10:56:44;;;;;;;18.67;2.13;;;7.60;99.90;;;;;;5090120;28;20048;-74
2024/01/23 10:59:20;;;;;;;12.00;1.90;;;7.60;99.90;;;;;;5089490;28;20559;-65
2024/01/23 11:01:51;;;;;;;15.52;3.72;;;7.60;99.90;;;;;;5085133;28;20047;-63
2024/01/23 11:04:18;;;;;;;;;;;7.60;99.90;;;;;;5087629;28;20040;-65
2024/01/23 11:07:00;;;;;;;13.10;3.72;;;7.60;99.90;;;;;;5074418;28;19924;-71
2024/01/23 11:09:56;;;;;;;16.00;5.85;;;7.70;99.90;;;;;;5086752;28;20044;-66
2024/01/23 11:12:48;;;;;;;12.88;4.28;;;7.70;99.90;;;;;;5070290;28;20087;-71
2024/01/23 11:15:17;;;;;;;15.48;3.53;;;7.70;99.90;;;;;;5081981;28;20048;-70
2024/01/23 11:17:45;;;;;;;16.63;3.47;;;7.70;99.90;;;;;;5089727;28;20475;-72
2024/01/23 11:20:17;;;;;;;14.00;3.85;;;7.80;99.90;;;;;;5087161;28;20060;-73
2024/01/23 11:22:45;;;;;;;11.52;2.72;;;7.80;99.90;;;;;;5091741;28;20044;-67
2024/01/23 11:25:16;;;;;;;5.45;1.70;;;7.90;99.90;;;;;;5091452;28;20044;-64
2024/01/23 11:27:47;;;;;;;6.80;1.70;;;7.90;99.90;;;;;;5092827;28;20044;-71
2024/01/23 11:30:16;;;;;;;8.30;1.88;;;7.90;99.90;;;;;;5110046;28;20039;-64
2024/01/23 11:32:43;;;;;;;5.95;0.80;;;8.00;99.90;;;;;;5086797;28;20056;-65
2024/01/23 11:35:12;;;;;;;3.95;1.08;;;8.00;99.90;;;;;;5097768;28;20407;-63
2024/01/23 11:37:49;;;;;;;2.90;0.95;;;8.00;99.90;;;;;;5073306;28;20054;-63
2024/01/23 11:40:27;;;;;;;2.88;1.00;;;8.10;99.90;;;;;;5088566;28;20048;-67
2024/01/23 11:42:58;;;;;;;2.80;1.50;;;8.10;99.90;;;;;;5092345;28;20067;-64
2024/01/23 11:45:36;;;;;;;5.88;1.52;;;8.10;99.90;;;;;;5088359;28;20040;-64
2024/01/23 11:48:06;;;;;;;8.88;2.42;;;8.20;99.90;;;;;;5087277;28;20048;-68
2024/01/23 11:50:38;;;;;;;6.75;2.10;;;8.20;99.90;;;;;;5076711;28;20392;-63
2024/01/23 11:53:06;;;;;;;3.65;1.60;;;8.30;99.90;;;;;;5075859;28;20048;-64
2024/01/23 11:55:39;;;;;;;6.03;2.10;;;8.30;99.90;;;;;;5081940;28;20052;-64
2024/01/23 11:58:07;;;;;;;3.70;2.08;;;8.30;99.90;;;;;;5075248;28;20498;-65
2024/01/23 12:00:34;;;;;;;4.45;2.72;;;8.30;99.90;;;;;;5089538;28;20040;-64
2024/01/23 12:03:08;;;;;;;5.35;2.38;;;8.40;99.90;;;;;;5088390;28;20068;-64
2024/01/23 12:05:36;;;;;;;5.40;2.10;;;8.40;99.90;;;;;;5087897;28;20205;-64
2024/01/23 12:08:04;;;;;;;6.32;2.25;;;8.40;99.90;;;;;;5075743;28;20406;-67
2024/01/23 12:10:32;;;;;;;3.08;1.45;;;8.50;99.90;;;;;;5088668;28;20048;-65
2024/01/23 12:13:00;;;;;;;4.03;1.23;;;8.50;99.90;;;;;;5069696;28;20786;-67
2024/01/23 12:15:28;;;;;;;4.05;1.20;;;8.60;99.90;;;;;;5087957;28;20493;-65
2024/01/23 12:17:56;;;;;;;5.80;0.95;;;8.60;99.90;;;;;;5093189;28;20836;-64
2024/01/23 12:20:24;;;;;;;2.60;0.77;;;8.70;99.90;;;;;;5109261;28;20398;-64
2024/01/23 12:22:51;;;;;;;1.77;1.10;;;8.70;99.90;;;;;;5087488;28;20055;-63
2024/01/23 12:25:19;;;;;;;2.05;1.08;;;8.70;99.90;;;;;;5087520;28;20051;-69
2024/01/23 12:27:48;;;;;;;1.70;1.10;;;8.80;99.90;;;;;;5071362;28;20056;-71
2024/01/23 12:30:17;;;;;;;5.18;1.30;;;8.90;99.90;;;;;;5088484;28;20040;-63
2024/01/23 12:32:49;;;;;;;1.08;0.80;;;8.90;99.90;;;;;;5086310;28;20051;-68
2024/01/23 12:35:17;;;;;;;3.70;0.80;;;9.00;99.90;;;;;;5088501;28;20048;-65
2024/01/23 12:37:45;;;;;;;2.58;0.98;;;9.00;99.90;;;;;;5075089;28;20040;-65
2024/01/23 12:40:14;;;;;;;1.88;1.52;;;9.10;99.90;;;;;;5087334;28;20510;-71
2024/01/23 12:42:44;;;;;;;3.75;1.73;;;9.10;99.90;;;;;;5079376;28;20044;-70
2024/01/23 12:45:18;;;;;;;2.60;1.50;;;9.20;99.90;;;;;;5088881;28;20056;-68
2024/01/23 12:47:47;;;;;;;7.47;2.00;;;9.20;99.90;;;;;;5088266;28;20051;-62
2024/01/23 12:50:20;;;;;;;4.45;2.65;;;9.20;99.90;;;;;;5088600;28;20040;-66
2024/01/23 12:52:51;;;;;;;3.85;1.50;;;9.30;99.90;;;;;;5085360;28;20047;-72
2024/01/23 12:55:20;;;;;;;3.17;1.80;;;9.30;99.90;;;;;;5091549;28;20047;-70